Airfield :
LOGIN :

Register | Disclaimer

   EN    FR    IT 

 










Legend :    VFR   Marginal VFR   IFR   Intensive IFR   Very Intensive IFR
Visi :
Ceiling :
>= 8 km
>= 3000ft
5 to 8 km
1000 to 3000 ft
1500m to 5 km
500 to 1000 ft
800 to 1500m
200 to 500 ft
< 800m
< 200 ft
Symbols :   Thunderstorms  Fog  Heavy snow  Heavy precipitations  Wind > 20 kt
SIGMETs :     Misc.  Thunderstorms  Icing  Turbulence  Mountain Waves  Volcanic Ashes







- Airport Elevation : 49 ft
- IATA code : GLZ


EHGR - Gilze-Rijen Airbase

CURRENT METAR :
  • 100855Z AUTO 24005KT 9999 FEW053 05/04 Q1022 BLU 31005KT 9999 FEW015 SCT020 TEMPO 32010G20KT 4000 SHRA SCT015CB BKN020

EXPIRED METARs :
  • 100829Z AUTO 27005KT 250V340 9999 FEW016 05/04 Q1021 BLU 31005KT 9999 FEW015 SCT020 TEMPO 32010G20KT 4000 SHRA SCT015CB BKN020
  • 100825Z AUTO 27004KT 250V340 9999 FEW014 SCT017 05/04 Q1021 REDZ WHT 31005KT 9999 FEW015 SCT020 TEMPO 32010G20KT 4000 SHRA SCT015CB BKN020
  • 100814Z AUTO 29003KT 260V020 9999 DZ BKN015 BKN019 OVC024 05/04 Q1021 WHT 31005KT 9999 FEW015 SCT020 TEMPO 32010G20KT 4000 SHRA SCT015CB BKN020
  • 100758Z AUTO 31004KT 280V060 9999 -RA SCT014 FEW015CB BKN017 BKN020 05/04 Q1021 GRN
  • 100755Z AUTO 17003KT 260V060 9999 -SHRA FEW013 FEW015CB BKN016 BKN031 05/04 Q1021 WHT
  • 100738Z AUTO VRB07KT 9999 FEW005 SCT008 BKN014 FEW015CB 05/04 Q1021 GRN
  • 100725Z AUTO 22006KT 9999 FEW015CB SCT043 BKN058 04/03 Q1021 BLU
  • 100655Z AUTO 25005KT 9999 FEW015CB SCT075 04/03 Q1021 RERA BLU
  • 100639Z AUTO 26006KT 240V320 9999 FEW008 FEW015CB SCT025 BKN045 05/04 Q1021 BLU
  • 100631Z AUTO 30011KT 250V350 8000 SHRA FEW007 SCT013 FEW015CB BKN016 05/04 Q1021 GRN
  • 100625Z AUTO 27007KT 250V010 9999 RA FEW015CB SCT018 BKN044 05/04 Q1021 WHT

TAF AMD TAF EHGR
Valid from the 10 at 08:00 until the 10 at 18:00 UTC


100818Z 1008/1018 27009KT 9999 SCT025
TEMPO 1008/1018 29012G22KT 3000 SHRAGS FEW012 SCT016CB BKN025
BECMG 1011/1013 31013KT
BECMG 1017/1018 28007KT
No reported NOTAMs for that airfield.



MET'MAP, your aeronautical weather chart ! - Copyright ORBIFLY December 2007 - Disclaimer

ORBIFLY MET'MAP TEAM :

Programming & Development : Alexandra Zaïnal
Concept & Development : Baudouin d'Aumeries
Co-Development & Prog : Marc-Olivier Méhu
Technical & hardware support : Manuel Goepfert

Contact : metmap@orbifly.com




SOURCES & CREDITS :

   NOAA